Kingman, AZ (86401)

10:14 AM MST on September 21, 2014 (GMT -0700)
Southeast Kingman | Change Station
CLOSE
Current Station
Personal Weather Station
Location: Kingman, AZ
Elevation: 3584 ft
Nearby Weather Stations

Elev 3584 ft 35.20 °N, 114.00 °W | Updated 3 minutes ago

Clear
Clear
83.5 °F
Feels Like 82 °F
N
1.0
Wind Variable Wind from SW
Gusts 7.0 mph

Today
High -- | Low -- °F
--% Chance of Precip.
Yesterday
High -- | Low -- °F
Precip. -- in
6:23 AM 6:34 PM
Waning Crescent, 6% visible
Pressure 30.08 in
Visibility 10.0 miles
Clouds Few 8000 ft
Heat Index 82 °F
Dew Point 50 °F
Humidity 32%
Rainfall 0.00 in
Snow Depth 1 in , 0 in , 1 in
UV 5 out of 12
Pollen 5.70 out of 12
Air Quality Not available.
Flu Activity Not available.
METAR KIGM 211651Z AUTO 07009KT 330V130 10SM FEW080 28/10 A3008

More Conditions Fewer Conditions

Pressure 30.08 in
Visibility 10.0 miles
Clouds Few 8000 ft
Heat Index 82 °F
Dew Point 50 °F
Humidity 32%
Rainfall 0.00 in
Snow Depth 1 in , 0 in , 1 in
UV 5 out of 12
Pollen 5.70 out of 12
Air Quality Not available.
Flu Activity Not available.
METAR KIGM 211651Z AUTO 07009KT 330V130 10SM FEW080 28/10 A3008

More Conditions Fewer Conditions

10-Day Weather Forecast

Almanac

Astronomy

Sep. 21, 2014 Rise Set
Actual Time 6:23 AM MST 6:34 PM MST
Civil Twilight 5:58 AM MST 6:59 PM MST
Nautical Twilight 5:28 AM MST 7:29 PM MST
Astronomical Twilight 4:58 AM MST 7:59 PM MST
Moon 4:05 AM MST 5:09 PM MST
Length of Visible Light 13h 01m
Length of Day
12h 10m
Tomorrow will be 2m 12s shorter.
Waning Crescent, 6% of the Moon is Illuminated
Today
Waning Crescent
Sep 24
New
Oct 1
First Quarter
Oct 8
Full
Oct 15
Last Quarter

Today's Extremes

State Highs State Lows

Community

WunderPhotos

Upload Photos

1,755,197 photos uploaded!

WunderBlogs® & News

Nearby

Snow Depth

Station Depth Elevation
Beaver Head 1 in 7990 ft
Happy Jack 0 in 7630 ft
Snowslide Canyon 0 in 9730 ft
Workman Creek 1 in 6900 ft
Wildcat 0 in 7850 ft

Earthquake Activity

City Distance Mag. Time & Date
No recent earthquake activity has been reported nearby.
Minimum magnitude displayed is 2.5.

Coastal Water Temperatures

Place Temperature
No Stations Reporting

Nearby Weather Stations